sensor_id;sensor_type;location;lat;lon;timestamp;P1;durP1;ratioP1;P2;durP2;ratioP2
5999;SDS011;3028;49.468;7.694;2022-08-25T00:01:31;2.20;;;2.00;;
5999;SDS011;3028;49.468;7.694;2022-08-25T00:03:34;3.22;;;2.17;;
5999;SDS011;3028;49.468;7.694;2022-08-25T00:05:39;2.40;;;2.17;;
5999;SDS011;3028;49.468;7.694;2022-08-25T00:07:41;2.55;;;2.10;;
5999;SDS011;3028;49.468;7.694;2022-08-25T00:09:43;2.17;;;1.98;;
5999;SDS011;3028;49.468;7.694;2022-08-25T00:11:46;2.35;;;2.15;;
5999;SDS011;3028;49.468;7.694;2022-08-25T00:13:52;7.55;;;2.33;;
5999;SDS011;3028;49.468;7.694;2022-08-25T00:15:57;3.38;;;1.50;;
5999;SDS011;3028;49.468;7.694;2022-08-25T00:17:59;2.95;;;2.00;;
5999;SDS011;3028;49.468;7.694;2022-08-25T00:20:02;2.65;;;1.88;;
5999;SDS011;3028;49.468;7.694;2022-08-25T00:22:05;2.17;;;1.95;;
5999;SDS011;3028;49.468;7.694;2022-08-25T00:24:08;2.20;;;2.10;;
5999;SDS011;3028;49.468;7.694;2022-08-25T00:26:11;5.70;;;2.13;;
5999;SDS011;3028;49.468;7.694;2022-08-25T00:28:13;3.88;;;2.30;;
5999;SDS011;3028;49.468;7.694;2022-08-25T00:30:17;2.30;;;2.10;;
5999;SDS011;3028;49.468;7.694;2022-08-25T00:32:19;2.38;;;1.90;;
5999;SDS011;3028;49.468;7.694;2022-08-25T00:34:22;2.13;;;2.00;;
5999;SDS011;3028;49.468;7.694;2022-08-25T00:36:26;2.50;;;1.95;;
5999;SDS011;3028;49.468;7.694;2022-08-25T00:38:29;2.13;;;1.92;;
5999;SDS011;3028;49.468;7.694;2022-08-25T00:40:32;4.88;;;2.40;;
5999;SDS011;3028;49.468;7.694;2022-08-25T00:42:34;7.00;;;2.80;;
5999;SDS011;3028;49.468;7.694;2022-08-25T00:44:38;3.13;;;2.40;;
5999;SDS011;3028;49.468;7.694;2022-08-25T00:46:41;2.53;;;2.33;;
5999;SDS011;3028;49.468;7.694;2022-08-25T00:48:46;8.05;;;1.70;;
5999;SDS011;3028;49.468;7.694;2022-08-25T00:50:51;2.35;;;1.75;;
5999;SDS011;3028;49.468;7.694;2022-08-25T00:52:53;7.80;;;2.00;;
5999;SDS011;3028;49.468;7.694;2022-08-25T00:55:02;2.30;;;1.98;;
5999;SDS011;3028;49.468;7.694;2022-08-25T00:57:11;2.55;;;2.22;;
5999;SDS011;3028;49.468;7.694;2022-08-25T00:59:14;2.58;;;1.92;;
5999;SDS011;3028;49.468;7.694;2022-08-25T01:01:16;2.38;;;2.17;;
5999;SDS011;3028;49.468;7.694;2022-08-25T01:03:18;2.45;;;1.90;;
5999;SDS011;3028;49.468;7.694;2022-08-25T01:05:24;1.90;;;1.80;;
5999;SDS011;3028;49.468;7.694;2022-08-25T01:07:27;2.63;;;2.42;;
5999;SDS011;3028;49.468;7.694;2022-08-25T01:09:29;2.45;;;2.25;;
5999;SDS011;3028;49.468;7.694;2022-08-25T01:11:33;2.50;;;2.30;;
5999;SDS011;3028;49.468;7.694;2022-08-25T01:13:37;3.15;;;2.10;;
5999;SDS011;3028;49.468;7.694;2022-08-25T01:15:43;2.30;;;2.03;;
5999;SDS011;3028;49.468;7.694;2022-08-25T01:17:50;3.45;;;2.00;;
5999;SDS011;3028;49.468;7.694;2022-08-25T01:19:54;2.22;;;2.03;;
5999;SDS011;3028;49.468;7.694;2022-08-25T01:21:56;2.17;;;1.80;;
5999;SDS011;3028;49.468;7.694;2022-08-25T01:23:58;2.22;;;1.90;;
5999;SDS011;3028;49.468;7.694;2022-08-25T01:26:02;3.67;;;1.55;;
5999;SDS011;3028;49.468;7.694;2022-08-25T01:28:04;4.47;;;1.77;;
5999;SDS011;3028;49.468;7.694;2022-08-25T01:30:07;2.42;;;2.20;;
5999;SDS011;3028;49.468;7.694;2022-08-25T01:32:09;2.80;;;1.73;;
5999;SDS011;3028;49.468;7.694;2022-08-25T01:34:13;2.08;;;1.98;;
5999;SDS011;3028;49.468;7.694;2022-08-25T01:36:17;2.72;;;1.83;;
5999;SDS011;3028;49.468;7.694;2022-08-25T01:38:20;2.75;;;2.08;;
5999;SDS011;3028;49.468;7.694;2022-08-25T01:40:23;2.42;;;2.00;;
5999;SDS011;3028;49.468;7.694;2022-08-25T01:45:04;2.97;;;1.83;;
5999;SDS011;3028;49.468;7.694;2022-08-25T01:47:07;2.03;;;1.92;;
5999;SDS011;3028;49.468;7.694;2022-08-25T01:49:09;3.35;;;2.17;;
5999;SDS011;3028;49.468;7.694;2022-08-25T01:51:11;2.28;;;2.00;;
5999;SDS011;3028;49.468;7.694;2022-08-25T01:53:21;3.30;;;2.08;;
5999;SDS011;3028;49.468;7.694;2022-08-25T01:55:24;2.25;;;2.00;;
5999;SDS011;3028;49.468;7.694;2022-08-25T01:57:28;3.15;;;1.63;;
5999;SDS011;3028;49.468;7.694;2022-08-25T01:59:30;2.42;;;2.08;;
5999;SDS011;3028;49.468;7.694;2022-08-25T02:01:32;3.17;;;2.03;;
5999;SDS011;3028;49.468;7.694;2022-08-25T02:03:38;7.82;;;2.00;;
5999;SDS011;3028;49.468;7.694;2022-08-25T02:05:42;2.42;;;2.17;;
5999;SDS011;3028;49.468;7.694;2022-08-25T02:07:48;2.85;;;2.10;;
5999;SDS011;3028;49.468;7.694;2022-08-25T02:09:49;4.97;;;2.90;;
5999;SDS011;3028;49.468;7.694;2022-08-25T02:11:51;3.08;;;2.80;;
5999;SDS011;3028;49.468;7.694;2022-08-25T02:13:53;2.00;;;1.90;;
5999;SDS011;3028;49.468;7.694;2022-08-25T02:15:55;2.33;;;2.20;;
5999;SDS011;3028;49.468;7.694;2022-08-25T02:17:58;2.25;;;2.05;;
5999;SDS011;3028;49.468;7.694;2022-08-25T02:20:01;2.55;;;2.28;;
5999;SDS011;3028;49.468;7.694;2022-08-25T02:22:05;2.67;;;2.47;;
5999;SDS011;3028;49.468;7.694;2022-08-25T02:24:07;3.25;;;2.03;;
5999;SDS011;3028;49.468;7.694;2022-08-25T02:26:09;2.20;;;2.10;;
5999;SDS011;3028;49.468;7.694;2022-08-25T02:28:11;2.35;;;2.25;;
5999;SDS011;3028;49.468;7.694;2022-08-25T02:30:14;2.55;;;2.35;;
5999;SDS011;3028;49.468;7.694;2022-08-25T02:32:16;2.65;;;2.05;;
5999;SDS011;3028;49.468;7.694;2022-08-25T02:34:17;2.97;;;2.78;;
5999;SDS011;3028;49.468;7.694;2022-08-25T02:36:20;3.67;;;2.35;;
5999;SDS011;3028;49.468;7.694;2022-08-25T02:38:22;5.97;;;2.28;;
5999;SDS011;3028;49.468;7.694;2022-08-25T02:40:23;2.75;;;1.98;;
5999;SDS011;3028;49.468;7.694;2022-08-25T02:42:26;2.20;;;2.10;;
5999;SDS011;3028;49.468;7.694;2022-08-25T02:44:27;2.50;;;2.30;;
5999;SDS011;3028;49.468;7.694;2022-08-25T02:46:29;3.60;;;2.60;;
5999;SDS011;3028;49.468;7.694;2022-08-25T02:48:31;2.92;;;2.10;;
5999;SDS011;3028;49.468;7.694;2022-08-25T02:50:33;3.20;;;2.75;;
5999;SDS011;3028;49.468;7.694;2022-08-25T02:52:35;2.78;;;2.28;;
5999;SDS011;3028;49.468;7.694;2022-08-25T02:54:36;4.95;;;3.08;;
5999;SDS011;3028;49.468;7.694;2022-08-25T02:56:38;2.97;;;2.60;;
5999;SDS011;3028;49.468;7.694;2022-08-25T02:58:41;2.00;;;1.70;;
5999;SDS011;3028;49.468;7.694;2022-08-25T03:00:43;3.60;;;2.33;;
5999;SDS011;3028;49.468;7.694;2022-08-25T03:02:46;2.90;;;2.38;;
5999;SDS011;3028;49.468;7.694;2022-08-25T03:04:48;3.25;;;2.63;;
5999;SDS011;3028;49.468;7.694;2022-08-25T03:06:51;2.78;;;2.58;;
5999;SDS011;3028;49.468;7.694;2022-08-25T03:08:53;3.30;;;2.05;;
5999;SDS011;3028;49.468;7.694;2022-08-25T03:10:55;5.35;;;2.83;;
5999;SDS011;3028;49.468;7.694;2022-08-25T03:12:56;2.90;;;2.60;;
5999;SDS011;3028;49.468;7.694;2022-08-25T03:14:58;3.50;;;2.78;;
5999;SDS011;3028;49.468;7.694;2022-08-25T03:17:01;4.30;;;2.85;;
5999;SDS011;3028;49.468;7.694;2022-08-25T03:19:09;3.58;;;3.25;;
5999;SDS011;3028;49.468;7.694;2022-08-25T03:21:11;2.95;;;2.65;;
5999;SDS011;3028;49.468;7.694;2022-08-25T03:23:15;2.35;;;2.15;;
5999;SDS011;3028;49.468;7.694;2022-08-25T03:25:18;2.80;;;2.60;;
5999;SDS011;3028;49.468;7.694;2022-08-25T03:27:38;3.10;;;2.45;;
5999;SDS011;3028;49.468;7.694;2022-08-25T03:29:40;3.78;;;2.80;;
5999;SDS011;3028;49.468;7.694;2022-08-25T03:31:43;2.97;;;2.30;;
5999;SDS011;3028;49.468;7.694;2022-08-25T03:33:45;2.85;;;2.65;;
5999;SDS011;3028;49.468;7.694;2022-08-25T03:35:47;2.55;;;2.35;;
5999;SDS011;3028;49.468;7.694;2022-08-25T03:37:48;3.05;;;2.72;;
5999;SDS011;3028;49.468;7.694;2022-08-25T03:39:51;2.38;;;2.25;;
5999;SDS011;3028;49.468;7.694;2022-08-25T03:41:53;4.07;;;2.53;;
5999;SDS011;3028;49.468;7.694;2022-08-25T03:43:55;2.63;;;2.42;;
5999;SDS011;3028;49.468;7.694;2022-08-25T03:45:57;3.10;;;2.58;;
5999;SDS011;3028;49.468;7.694;2022-08-25T03:47:59;3.45;;;2.65;;
5999;SDS011;3028;49.468;7.694;2022-08-25T03:50:01;3.83;;;3.47;;
5999;SDS011;3028;49.468;7.694;2022-08-25T03:52:02;5.40;;;3.03;;
5999;SDS011;3028;49.468;7.694;2022-08-25T03:54:04;3.42;;;3.13;;
5999;SDS011;3028;49.468;7.694;2022-08-25T03:56:06;2.70;;;2.47;;
5999;SDS011;3028;49.468;7.694;2022-08-25T03:58:08;2.75;;;2.47;;
5999;SDS011;3028;49.468;7.694;2022-08-25T04:00:10;3.88;;;3.55;;
5999;SDS011;3028;49.468;7.694;2022-08-25T04:02:12;2.85;;;2.65;;
5999;SDS011;3028;49.468;7.694;2022-08-25T04:04:14;2.40;;;2.20;;
5999;SDS011;3028;49.468;7.694;2022-08-25T04:06:17;2.65;;;2.45;;
5999;SDS011;3028;49.468;7.694;2022-08-25T04:08:19;2.08;;;1.80;;
5999;SDS011;3028;49.468;7.694;2022-08-25T04:10:22;4.10;;;1.98;;
5999;SDS011;3028;49.468;7.694;2022-08-25T04:12:24;2.67;;;2.47;;
5999;SDS011;3028;49.468;7.694;2022-08-25T04:14:26;3.50;;;2.35;;
5999;SDS011;3028;49.468;7.694;2022-08-25T04:16:28;2.53;;;2.35;;
5999;SDS011;3028;49.468;7.694;2022-08-25T04:18:31;3.67;;;2.45;;
5999;SDS011;3028;49.468;7.694;2022-08-25T04:20:34;2.80;;;2.60;;
5999;SDS011;3028;49.468;7.694;2022-08-25T04:22:36;2.72;;;2.53;;
5999;SDS011;3028;49.468;7.694;2022-08-25T04:24:38;6.13;;;2.38;;
5999;SDS011;3028;49.468;7.694;2022-08-25T04:26:42;2.50;;;2.05;;
5999;SDS011;3028;49.468;7.694;2022-08-25T04:28:46;2.83;;;2.38;;
5999;SDS011;3028;49.468;7.694;2022-08-25T04:30:48;5.13;;;2.40;;
5999;SDS011;3028;49.468;7.694;2022-08-25T04:32:52;2.60;;;2.40;;
5999;SDS011;3028;49.468;7.694;2022-08-25T04:34:54;2.63;;;2.42;;
5999;SDS011;3028;49.468;7.694;2022-08-25T04:36:55;2.58;;;2.38;;
5999;SDS011;3028;49.468;7.694;2022-08-25T04:38:58;2.65;;;2.45;;
5999;SDS011;3028;49.468;7.694;2022-08-25T04:41:01;2.70;;;2.50;;
5999;SDS011;3028;49.468;7.694;2022-08-25T04:43:03;3.22;;;2.95;;
5999;SDS011;3028;49.468;7.694;2022-08-25T04:45:05;5.05;;;3.05;;
5999;SDS011;3028;49.468;7.694;2022-08-25T04:47:07;10.20;;;2.97;;
5999;SDS011;3028;49.468;7.694;2022-08-25T04:49:11;10.35;;;3.08;;
5999;SDS011;3028;49.468;7.694;2022-08-25T04:51:14;14.75;;;3.70;;
5999;SDS011;3028;49.468;7.694;2022-08-25T04:53:17;16.95;;;4.78;;
5999;SDS011;3028;49.468;7.694;2022-08-25T04:55:19;24.13;;;4.05;;
5999;SDS011;3028;49.468;7.694;2022-08-25T04:57:20;18.50;;;4.20;;
5999;SDS011;3028;49.468;7.694;2022-08-25T04:59:22;12.45;;;4.57;;
5999;SDS011;3028;49.468;7.694;2022-08-25T05:01:44;21.30;;;5.38;;
5999;SDS011;3028;49.468;7.694;2022-08-25T05:03:54;9.50;;;3.30;;
5999;SDS011;3028;49.468;7.694;2022-08-25T05:05:57;13.77;;;4.07;;
5999;SDS011;3028;49.468;7.694;2022-08-25T05:08:01;9.73;;;4.50;;
5999;SDS011;3028;49.468;7.694;2022-08-25T05:10:04;5.47;;;3.55;;
5999;SDS011;3028;49.468;7.694;2022-08-25T05:12:06;18.55;;;3.25;;
5999;SDS011;3028;49.468;7.694;2022-08-25T05:14:10;9.93;;;3.50;;
5999;SDS011;3028;49.468;7.694;2022-08-25T05:16:16;7.85;;;3.50;;
5999;SDS011;3028;49.468;7.694;2022-08-25T05:18:20;6.55;;;3.22;;
5999;SDS011;3028;49.468;7.694;2022-08-25T05:20:23;3.10;;;2.80;;
5999;SDS011;3028;49.468;7.694;2022-08-25T05:22:25;3.20;;;2.88;;
5999;SDS011;3028;49.468;7.694;2022-08-25T05:24:27;3.88;;;2.78;;
5999;SDS011;3028;49.468;7.694;2022-08-25T05:26:30;3.20;;;2.63;;
5999;SDS011;3028;49.468;7.694;2022-08-25T05:28:32;5.32;;;2.80;;
5999;SDS011;3028;49.468;7.694;2022-08-25T05:30:38;5.63;;;2.35;;
5999;SDS011;3028;49.468;7.694;2022-08-25T05:32:41;4.20;;;2.55;;
5999;SDS011;3028;49.468;7.694;2022-08-25T05:34:43;5.30;;;2.25;;
5999;SDS011;3028;49.468;7.694;2022-08-25T05:36:44;3.60;;;2.58;;
5999;SDS011;3028;49.468;7.694;2022-08-25T05:38:47;5.30;;;3.15;;
5999;SDS011;3028;49.468;7.694;2022-08-25T05:40:55;5.47;;;2.72;;
5999;SDS011;3028;49.468;7.694;2022-08-25T05:43:00;13.02;;;2.35;;
5999;SDS011;3028;49.468;7.694;2022-08-25T05:45:05;5.13;;;3.22;;
5999;SDS011;3028;49.468;7.694;2022-08-25T05:47:07;3.38;;;2.63;;
5999;SDS011;3028;49.468;7.694;2022-08-25T05:49:09;3.03;;;2.80;;
5999;SDS011;3028;49.468;7.694;2022-08-25T05:51:11;5.93;;;2.70;;
5999;SDS011;3028;49.468;7.694;2022-08-25T05:53:14;6.43;;;3.20;;
5999;SDS011;3028;49.468;7.694;2022-08-25T05:55:16;3.42;;;2.65;;
5999;SDS011;3028;49.468;7.694;2022-08-25T05:57:17;4.72;;;2.70;;
5999;SDS011;3028;49.468;7.694;2022-08-25T05:59:19;6.10;;;3.10;;
5999;SDS011;3028;49.468;7.694;2022-08-25T06:01:23;5.45;;;2.55;;
5999;SDS011;3028;49.468;7.694;2022-08-25T06:03:45;2.50;;;2.30;;
5999;SDS011;3028;49.468;7.694;2022-08-25T06:05:48;4.18;;;2.17;;
5999;SDS011;3028;49.468;7.694;2022-08-25T06:07:50;3.00;;;2.53;;
5999;SDS011;3028;49.468;7.694;2022-08-25T06:09:52;4.10;;;3.80;;
5999;SDS011;3028;49.468;7.694;2022-08-25T06:11:54;5.18;;;3.08;;
5999;SDS011;3028;49.468;7.694;2022-08-25T06:13:56;4.20;;;3.13;;
5999;SDS011;3028;49.468;7.694;2022-08-25T06:15:58;2.70;;;2.50;;
5999;SDS011;3028;49.468;7.694;2022-08-25T06:18:00;3.80;;;2.60;;
5999;SDS011;3028;49.468;7.694;2022-08-25T06:20:03;3.15;;;2.10;;
5999;SDS011;3028;49.468;7.694;2022-08-25T06:22:07;6.25;;;2.88;;
5999;SDS011;3028;49.468;7.694;2022-08-25T06:24:09;2.22;;;1.65;;
5999;SDS011;3028;49.468;7.694;2022-08-25T06:26:15;2.60;;;1.90;;
5999;SDS011;3028;49.468;7.694;2022-08-25T06:28:21;2.63;;;2.13;;
5999;SDS011;3028;49.468;7.694;2022-08-25T06:30:23;3.70;;;2.22;;
5999;SDS011;3028;49.468;7.694;2022-08-25T06:32:30;2.45;;;2.13;;
5999;SDS011;3028;49.468;7.694;2022-08-25T06:34:32;2.25;;;1.92;;
5999;SDS011;3028;49.468;7.694;2022-08-25T06:36:34;3.83;;;2.10;;
5999;SDS011;3028;49.468;7.694;2022-08-25T06:38:36;2.17;;;1.95;;
5999;SDS011;3028;49.468;7.694;2022-08-25T06:40:37;4.85;;;2.05;;
5999;SDS011;3028;49.468;7.694;2022-08-25T06:42:39;3.50;;;1.60;;
5999;SDS011;3028;49.468;7.694;2022-08-25T06:44:41;5.88;;;2.28;;
5999;SDS011;3028;49.468;7.694;2022-08-25T06:46:43;3.83;;;3.45;;
5999;SDS011;3028;49.468;7.694;2022-08-25T06:48:44;3.47;;;1.67;;
5999;SDS011;3028;49.468;7.694;2022-08-25T06:50:46;8.65;;;2.15;;
5999;SDS011;3028;49.468;7.694;2022-08-25T06:52:48;2.67;;;1.52;;
5999;SDS011;3028;49.468;7.694;2022-08-25T06:54:51;3.53;;;1.67;;
5999;SDS011;3028;49.468;7.694;2022-08-25T06:56:54;8.40;;;2.50;;
5999;SDS011;3028;49.468;7.694;2022-08-25T06:58:59;4.45;;;1.70;;
5999;SDS011;3028;49.468;7.694;2022-08-25T07:01:12;2.40;;;1.42;;
5999;SDS011;3028;49.468;7.694;2022-08-25T07:03:26;2.58;;;2.08;;
5999;SDS011;3028;49.468;7.694;2022-08-25T07:05:28;4.30;;;2.45;;
5999;SDS011;3028;49.468;7.694;2022-08-25T07:07:43;3.78;;;2.22;;
5999;SDS011;3028;49.468;7.694;2022-08-25T07:09:46;9.43;;;2.30;;
5999;SDS011;3028;49.468;7.694;2022-08-25T07:11:48;4.32;;;3.20;;
5999;SDS011;3028;49.468;7.694;2022-08-25T07:13:50;2.80;;;2.60;;
5999;SDS011;3028;49.468;7.694;2022-08-25T07:15:52;4.55;;;3.17;;
5999;SDS011;3028;49.468;7.694;2022-08-25T07:17:56;3.70;;;3.47;;
5999;SDS011;3028;49.468;7.694;2022-08-25T07:19:58;6.05;;;3.28;;
5999;SDS011;3028;49.468;7.694;2022-08-25T07:21:59;3.90;;;3.10;;
5999;SDS011;3028;49.468;7.694;2022-08-25T07:24:05;4.70;;;3.78;;
5999;SDS011;3028;49.468;7.694;2022-08-25T07:26:16;5.35;;;4.05;;
5999;SDS011;3028;49.468;7.694;2022-08-25T07:28:40;2.85;;;2.65;;
5999;SDS011;3028;49.468;7.694;2022-08-25T07:30:48;3.22;;;2.92;;
5999;SDS011;3028;49.468;7.694;2022-08-25T07:32:52;3.13;;;2.83;;
5999;SDS011;3028;49.468;7.694;2022-08-25T07:34:55;3.55;;;2.65;;
5999;SDS011;3028;49.468;7.694;2022-08-25T07:37:15;4.13;;;2.97;;
5999;SDS011;3028;49.468;7.694;2022-08-25T07:39:37;3.92;;;3.05;;
5999;SDS011;3028;49.468;7.694;2022-08-25T07:41:40;4.32;;;3.92;;
5999;SDS011;3028;49.468;7.694;2022-08-25T07:43:42;3.25;;;3.03;;
5999;SDS011;3028;49.468;7.694;2022-08-25T07:45:44;7.85;;;3.35;;
5999;SDS011;3028;49.468;7.694;2022-08-25T07:47:49;3.22;;;2.63;;
5999;SDS011;3028;49.468;7.694;2022-08-25T07:49:54;8.15;;;3.50;;
5999;SDS011;3028;49.468;7.694;2022-08-25T07:51:55;4.22;;;3.83;;
5999;SDS011;3028;49.468;7.694;2022-08-25T07:54:07;4.78;;;3.88;;
5999;SDS011;3028;49.468;7.694;2022-08-25T07:56:12;3.67;;;3.10;;
5999;SDS011;3028;49.468;7.694;2022-08-25T07:58:16;3.72;;;2.97;;
5999;SDS011;3028;49.468;7.694;2022-08-25T08:00:18;4.03;;;3.10;;
5999;SDS011;3028;49.468;7.694;2022-08-25T08:02:20;5.07;;;4.00;;
5999;SDS011;3028;49.468;7.694;2022-08-25T08:04:25;4.47;;;3.75;;
5999;SDS011;3028;49.468;7.694;2022-08-25T08:06:28;6.82;;;3.53;;
5999;SDS011;3028;49.468;7.694;2022-08-25T08:08:30;4.72;;;3.03;;
5999;SDS011;3028;49.468;7.694;2022-08-25T08:10:32;6.70;;;3.28;;
5999;SDS011;3028;49.468;7.694;2022-08-25T08:12:54;7.18;;;4.18;;
5999;SDS011;3028;49.468;7.694;2022-08-25T08:14:57;5.93;;;3.47;;
5999;SDS011;3028;49.468;7.694;2022-08-25T08:17:03;3.55;;;3.22;;
5999;SDS011;3028;49.468;7.694;2022-08-25T08:19:06;3.53;;;3.22;;
5999;SDS011;3028;49.468;7.694;2022-08-25T08:21:13;4.13;;;3.58;;
5999;SDS011;3028;49.468;7.694;2022-08-25T08:23:20;5.05;;;3.28;;
5999;SDS011;3028;49.468;7.694;2022-08-25T08:25:27;3.63;;;3.33;;
5999;SDS011;3028;49.468;7.694;2022-08-25T08:27:30;4.13;;;3.83;;
5999;SDS011;3028;49.468;7.694;2022-08-25T08:29:33;4.40;;;3.70;;
5999;SDS011;3028;49.468;7.694;2022-08-25T08:31:35;4.30;;;3.20;;
5999;SDS011;3028;49.468;7.694;2022-08-25T08:33:37;4.32;;;3.88;;
5999;SDS011;3028;49.468;7.694;2022-08-25T08:35:41;6.80;;;3.67;;
5999;SDS011;3028;49.468;7.694;2022-08-25T08:37:44;6.75;;;6.07;;
5999;SDS011;3028;49.468;7.694;2022-08-25T08:39:46;4.25;;;3.67;;
5999;SDS011;3028;49.468;7.694;2022-08-25T08:42:37;7.85;;;3.40;;
5999;SDS011;3028;49.468;7.694;2022-08-25T08:46:48;5.18;;;3.30;;
5999;SDS011;3028;49.468;7.694;2022-08-25T08:55:26;7.60;;;2.88;;
5999;SDS011;3028;49.468;7.694;2022-08-25T08:57:29;5.30;;;3.53;;
5999;SDS011;3028;49.468;7.694;2022-08-25T08:59:41;6.93;;;3.50;;
5999;SDS011;3028;49.468;7.694;2022-08-25T09:01:51;3.15;;;2.95;;
5999;SDS011;3028;49.468;7.694;2022-08-25T09:04:12;3.47;;;3.28;;
5999;SDS011;3028;49.468;7.694;2022-08-25T09:06:23;3.70;;;3.35;;
5999;SDS011;3028;49.468;7.694;2022-08-25T09:08:28;4.45;;;3.33;;
5999;SDS011;3028;49.468;7.694;2022-08-25T09:10:38;4.78;;;3.10;;
5999;SDS011;3028;49.468;7.694;2022-08-25T09:18:05;3.53;;;3.22;;
5999;SDS011;3028;49.468;7.694;2022-08-25T09:30:24;2.72;;;2.53;;
5999;SDS011;3028;49.468;7.694;2022-08-25T09:32:27;3.70;;;3.40;;
5999;SDS011;3028;49.468;7.694;2022-08-25T09:34:32;4.10;;;2.70;;
5999;SDS011;3028;49.468;7.694;2022-08-25T09:36:35;5.35;;;2.63;;
5999;SDS011;3028;49.468;7.694;2022-08-25T09:38:38;2.50;;;2.30;;
5999;SDS011;3028;49.468;7.694;2022-08-25T09:40:48;2.83;;;2.63;;
5999;SDS011;3028;49.468;7.694;2022-08-25T09:42:53;3.13;;;2.92;;
5999;SDS011;3028;49.468;7.694;2022-08-25T09:44:58;3.45;;;3.25;;
5999;SDS011;3028;49.468;7.694;2022-08-25T09:49:29;3.08;;;2.58;;
5999;SDS011;3028;49.468;7.694;2022-08-25T09:51:37;2.80;;;2.38;;
5999;SDS011;3028;49.468;7.694;2022-08-25T09:53:57;5.55;;;2.97;;
5999;SDS011;3028;49.468;7.694;2022-08-25T09:56:02;7.05;;;3.00;;
5999;SDS011;3028;49.468;7.694;2022-08-25T09:58:13;2.38;;;2.17;;
5999;SDS011;3028;49.468;7.694;2022-08-25T10:02:24;2.55;;;2.35;;
5999;SDS011;3028;49.468;7.694;2022-08-25T10:06:44;2.80;;;2.60;;
5999;SDS011;3028;49.468;7.694;2022-08-25T10:10:52;2.20;;;2.00;;
5999;SDS011;3028;49.468;7.694;2022-08-25T10:12:55;2.78;;;2.58;;
5999;SDS011;3028;49.468;7.694;2022-08-25T10:14:59;2.30;;;2.10;;
5999;SDS011;3028;49.468;7.694;2022-08-25T10:17:31;3.05;;;2.58;;
5999;SDS011;3028;49.468;7.694;2022-08-25T10:19:33;3.60;;;2.60;;
5999;SDS011;3028;49.468;7.694;2022-08-25T10:21:40;2.78;;;2.58;;
5999;SDS011;3028;49.468;7.694;2022-08-25T10:23:47;3.72;;;3.50;;
5999;SDS011;3028;49.468;7.694;2022-08-25T10:25:54;3.40;;;3.10;;
5999;SDS011;3028;49.468;7.694;2022-08-25T10:34:57;5.40;;;2.85;;
5999;SDS011;3028;49.468;7.694;2022-08-25T10:37:04;3.47;;;2.70;;
5999;SDS011;3028;49.468;7.694;2022-08-25T10:42:10;5.38;;;2.65;;
5999;SDS011;3028;49.468;7.694;2022-08-25T10:44:33;3.10;;;2.78;;
5999;SDS011;3028;49.468;7.694;2022-08-25T10:47:28;3.17;;;2.88;;
5999;SDS011;3028;49.468;7.694;2022-08-25T10:50:04;3.40;;;2.97;;
5999;SDS011;3028;49.468;7.694;2022-08-25T10:52:11;3.35;;;2.28;;
5999;SDS011;3028;49.468;7.694;2022-08-25T10:56:25;2.03;;;1.83;;
5999;SDS011;3028;49.468;7.694;2022-08-25T11:01:00;2.85;;;2.65;;
5999;SDS011;3028;49.468;7.694;2022-08-25T11:03:11;2.55;;;2.20;;
5999;SDS011;3028;49.468;7.694;2022-08-25T11:07:39;2.22;;;2.03;;
5999;SDS011;3028;49.468;7.694;2022-08-25T11:09:45;2.58;;;2.38;;
5999;SDS011;3028;49.468;7.694;2022-08-25T11:16:19;3.33;;;2.63;;
5999;SDS011;3028;49.468;7.694;2022-08-25T11:18:25;2.83;;;2.25;;
5999;SDS011;3028;49.468;7.694;2022-08-25T11:20:34;3.38;;;2.47;;
5999;SDS011;3028;49.468;7.694;2022-08-25T11:22:43;2.53;;;2.40;;
5999;SDS011;3028;49.468;7.694;2022-08-25T11:24:52;2.58;;;2.38;;
5999;SDS011;3028;49.468;7.694;2022-08-25T11:26:58;2.10;;;2.00;;
5999;SDS011;3028;49.468;7.694;2022-08-25T11:29:15;3.58;;;2.53;;
5999;SDS011;3028;49.468;7.694;2022-08-25T11:31:18;2.17;;;2.00;;
5999;SDS011;3028;49.468;7.694;2022-08-25T11:33:22;2.15;;;1.98;;
5999;SDS011;3028;49.468;7.694;2022-08-25T11:35:30;2.17;;;1.98;;
5999;SDS011;3028;49.468;7.694;2022-08-25T11:37:35;2.35;;;2.15;;
5999;SDS011;3028;49.468;7.694;2022-08-25T11:51:44;3.75;;;2.40;;
5999;SDS011;3028;49.468;7.694;2022-08-25T11:53:48;3.03;;;2.83;;
5999;SDS011;3028;49.468;7.694;2022-08-25T11:56:11;2.80;;;2.50;;
5999;SDS011;3028;49.468;7.694;2022-08-25T12:00:41;3.25;;;2.95;;
5999;SDS011;3028;49.468;7.694;2022-08-25T12:02:44;3.45;;;2.30;;
5999;SDS011;3028;49.468;7.694;2022-08-25T12:04:47;10.80;;;3.00;;
5999;SDS011;3028;49.468;7.694;2022-08-25T12:11:21;2.20;;;2.00;;
5999;SDS011;3028;49.468;7.694;2022-08-25T12:13:49;2.00;;;1.67;;
5999;SDS011;3028;49.468;7.694;2022-08-25T12:18:10;2.38;;;2.25;;
5999;SDS011;3028;49.468;7.694;2022-08-25T12:20:49;3.05;;;2.75;;
5999;SDS011;3028;49.468;7.694;2022-08-25T12:22:54;5.57;;;2.78;;
5999;SDS011;3028;49.468;7.694;2022-08-25T12:24:59;3.42;;;3.13;;
5999;SDS011;3028;49.468;7.694;2022-08-25T12:29:42;3.78;;;3.33;;
5999;SDS011;3028;49.468;7.694;2022-08-25T12:36:28;2.80;;;2.55;;
5999;SDS011;3028;49.468;7.694;2022-08-25T12:38:41;3.80;;;2.33;;
5999;SDS011;3028;49.468;7.694;2022-08-25T12:42:59;2.97;;;2.60;;
5999;SDS011;3028;49.468;7.694;2022-08-25T12:47:27;2.83;;;2.55;;
5999;SDS011;3028;49.468;7.694;2022-08-25T12:49:33;4.40;;;2.60;;
5999;SDS011;3028;49.468;7.694;2022-08-25T12:51:46;3.03;;;2.83;;
5999;SDS011;3028;49.468;7.694;2022-08-25T12:58:27;2.92;;;2.72;;
5999;SDS011;3028;49.468;7.694;2022-08-25T13:01:04;2.72;;;2.38;;
5999;SDS011;3028;49.468;7.694;2022-08-25T13:03:25;2.60;;;2.38;;
5999;SDS011;3028;49.468;7.694;2022-08-25T13:10:43;2.65;;;2.45;;
5999;SDS011;3028;49.468;7.694;2022-08-25T13:15:06;2.90;;;2.70;;
5999;SDS011;3028;49.468;7.694;2022-08-25T13:17:23;2.80;;;2.60;;
5999;SDS011;3028;49.468;7.694;2022-08-25T13:19:34;2.47;;;2.28;;
5999;SDS011;3028;49.468;7.694;2022-08-25T13:21:37;2.58;;;2.38;;
5999;SDS011;3028;49.468;7.694;2022-08-25T13:23:42;2.60;;;2.40;;
5999;SDS011;3028;49.468;7.694;2022-08-25T13:25:47;2.42;;;2.22;;
5999;SDS011;3028;49.468;7.694;2022-08-25T13:27:56;4.70;;;2.95;;
5999;SDS011;3028;49.468;7.694;2022-08-25T13:29:59;4.60;;;2.50;;
5999;SDS011;3028;49.468;7.694;2022-08-25T13:32:05;2.47;;;2.28;;
5999;SDS011;3028;49.468;7.694;2022-08-25T13:34:18;3.40;;;2.15;;
5999;SDS011;3028;49.468;7.694;2022-08-25T13:36:25;4.35;;;2.45;;
5999;SDS011;3028;49.468;7.694;2022-08-25T13:38:54;2.88;;;2.20;;
5999;SDS011;3028;49.468;7.694;2022-08-25T13:41:15;3.85;;;2.33;;
5999;SDS011;3028;49.468;7.694;2022-08-25T13:43:19;2.92;;;2.72;;
5999;SDS011;3028;49.468;7.694;2022-08-25T13:45:28;2.33;;;2.13;;
5999;SDS011;3028;49.468;7.694;2022-08-25T13:49:46;1.98;;;1.88;;
5999;SDS011;3028;49.468;7.694;2022-08-25T13:51:52;4.38;;;2.10;;
5999;SDS011;3028;49.468;7.694;2022-08-25T13:53:56;2.45;;;2.25;;
5999;SDS011;3028;49.468;7.694;2022-08-25T13:56:04;3.10;;;2.22;;
5999;SDS011;3028;49.468;7.694;2022-08-25T13:58:10;2.58;;;2.38;;
5999;SDS011;3028;49.468;7.694;2022-08-25T14:00:24;2.65;;;2.45;;
5999;SDS011;3028;49.468;7.694;2022-08-25T14:04:51;2.60;;;2.40;;
5999;SDS011;3028;49.468;7.694;2022-08-25T14:07:04;2.22;;;2.03;;
5999;SDS011;3028;49.468;7.694;2022-08-25T14:09:21;2.30;;;2.05;;
5999;SDS011;3028;49.468;7.694;2022-08-25T14:13:44;2.67;;;2.38;;
5999;SDS011;3028;49.468;7.694;2022-08-25T14:15:46;2.13;;;2.03;;
5999;SDS011;3028;49.468;7.694;2022-08-25T14:18:01;4.63;;;2.25;;
5999;SDS011;3028;49.468;7.694;2022-08-25T14:20:04;3.45;;;2.75;;
5999;SDS011;3028;49.468;7.694;2022-08-25T14:22:09;2.92;;;2.70;;
5999;SDS011;3028;49.468;7.694;2022-08-25T14:24:21;3.85;;;2.65;;
5999;SDS011;3028;49.468;7.694;2022-08-25T14:26:31;2.10;;;2.00;;
5999;SDS011;3028;49.468;7.694;2022-08-25T14:28:33;3.15;;;2.33;;
5999;SDS011;3028;49.468;7.694;2022-08-25T14:30:36;2.30;;;2.10;;
5999;SDS011;3028;49.468;7.694;2022-08-25T14:32:46;2.72;;;2.13;;
5999;SDS011;3028;49.468;7.694;2022-08-25T14:34:51;2.38;;;1.98;;
5999;SDS011;3028;49.468;7.694;2022-08-25T14:36:52;2.30;;;1.88;;
5999;SDS011;3028;49.468;7.694;2022-08-25T14:38:54;1.65;;;1.55;;
5999;SDS011;3028;49.468;7.694;2022-08-25T14:40:56;2.10;;;1.88;;
5999;SDS011;3028;49.468;7.694;2022-08-25T14:42:59;2.22;;;2.03;;
5999;SDS011;3028;49.468;7.694;2022-08-25T14:45:05;2.35;;;2.15;;
5999;SDS011;3028;49.468;7.694;2022-08-25T14:47:07;4.10;;;2.30;;
5999;SDS011;3028;49.468;7.694;2022-08-25T14:49:10;3.90;;;1.80;;